Time;durP1;ratioP1;P1;durP2;ratioP2;P2;SDS_P1;SDS_P2;PMS_P1;PMS_P2;Temp;Humidity;BMP_temperature;BMP_pressure;BME280_temperature;BME280_humidity;BME280_pressure;Samples;Min_cycle;Max_cycle;Signal;HPM_P1;HPM_P2
2021/07/30 00:00:47;;;;;;;70.95;64.32;;;;;;;22.67;100.00;100557.03;5017616;28;20112;-80
2021/07/30 00:03:15;;;;;;;67.13;60.17;;;;;;;22.52;100.00;100550.72;5000914;28;20478;-78
2021/07/30 00:05:42;;;;;;;64.05;57.28;;;;;;;22.62;100.00;100555.19;5019148;28;20076;-81
2021/07/30 00:08:08;;;;;;;65.43;59.33;;;;;;;22.68;100.00;100556.72;5005642;28;20066;-78
2021/07/30 00:10:35;;;;;;;63.67;57.15;;;;;;;22.36;100.00;100560.09;5016282;28;20053;-80
2021/07/30 00:13:02;;;;;;;78.03;70.55;;;;;;;22.17;100.00;100560.03;5013348;28;20417;-78
2021/07/30 00:15:29;;;;;;;65.70;59.80;;;;;;;22.56;100.00;100554.44;5013165;28;20077;-78
2021/07/30 00:17:55;;;;;;;64.10;57.65;;;;;;;22.68;100.00;100553.22;5010314;28;20479;-78
2021/07/30 00:20:24;;;;;;;70.88;64.07;;;;;;;22.59;100.00;100555.78;5005899;28;20116;-81
2021/07/30 00:22:50;;;;;;;69.65;63.38;;;;;;;22.61;100.00;100548.19;5010842;28;20131;-78
2021/07/30 00:25:17;;;;;;;69.38;62.63;;;;;;;22.57;100.00;100552.53;5005351;28;20133;-78
2021/07/30 00:27:44;;;;;;;75.60;57.53;;;;;;;22.51;100.00;100546.41;5005729;28;20116;-79
2021/07/30 00:30:12;;;;;;;66.15;59.65;;;;;;;22.61;100.00;100548.97;5015855;28;20054;-79
2021/07/30 00:32:39;;;;;;;71.32;64.53;;;;;;;22.14;100.00;100558.69;5015205;28;20560;-78
2021/07/30 00:35:06;;;;;;;72.32;64.95;;;;;;;22.03;100.00;100553.66;5012193;28;20120;-78
2021/07/30 00:37:35;;;;;;;75.18;68.03;;;;;;;22.26;100.00;100552.91;5009554;28;20078;-80
2021/07/30 00:40:02;;;;;;;68.63;62.03;;;;;;;22.49;100.00;100547.78;5006277;28;20057;-78
2021/07/30 00:42:31;;;;;;;76.00;68.75;;;;;;;22.01;100.00;100548.56;5008849;28;20073;-78
2021/07/30 00:44:58;;;;;;;74.45;68.18;;;;;;;22.36;100.00;100555.50;5005615;28;20046;-78
2021/07/30 00:47:25;;;;;;;70.03;63.17;;;;;;;22.33;100.00;100544.44;5013251;28;20050;-79
2021/07/30 00:49:52;;;;;;;72.40;65.40;;;;;;;22.11;100.00;100550.34;5013691;28;20053;-78
2021/07/30 00:52:20;;;;;;;70.53;64.00;;;;;;;22.36;100.00;100533.03;5011821;28;20050;-79
2021/07/30 00:54:48;;;;;;;79.18;71.93;;;;;;;21.93;100.00;100543.75;5004824;28;20073;-79
2021/07/30 00:57:16;;;;;;;74.20;67.35;;;;;;;22.18;100.00;100553.56;5008296;28;20057;-79
2021/07/30 00:59:44;;;;;;;69.78;63.10;;;;;;;22.11;100.00;100553.03;5009669;28;20458;-79
2021/07/30 01:02:11;;;;;;;66.85;60.22;;;;;;;22.39;100.00;100554.09;5012810;28;20050;-79
2021/07/30 01:04:38;;;;;;;63.33;57.33;;;;;;;22.59;100.00;100556.56;5009881;28;20046;-79
2021/07/30 01:07:05;;;;;;;61.30;55.35;;;;;;;22.88;100.00;100561.09;5012811;28;20046;-80
2021/07/30 01:09:32;;;;;;;58.55;53.35;;;;;;;22.98;100.00;100576.41;5009952;28;20054;-80
2021/07/30 01:12:01;;;;;;;60.53;54.55;;;;;;;22.76;100.00;100560.72;5010256;28;20112;-78
2021/07/30 01:14:28;;;;;;;52.67;47.35;;;;;;;23.27;100.00;100541.06;5004276;28;20513;-79
2021/07/30 01:16:55;;;;;;;63.55;57.92;;;;;;;22.79;100.00;100535.75;5013947;28;20461;-81
2021/07/30 01:19:24;;;;;;;58.47;52.65;;;;;;;23.13;100.00;100542.88;5005495;28;20050;-79
2021/07/30 01:21:53;;;;;;;57.38;51.65;;;;;;;23.43;100.00;100557.84;5013860;28;20069;-79
2021/07/30 01:24:22;;;;;;;61.28;55.17;;;;;;;23.10;100.00;100552.41;5003760;28;20058;-81
2021/07/30 01:26:51;;;;;;;68.35;62.10;;;;;;;22.92;100.00;100550.47;4999641;28;20046;-81
2021/07/30 01:29:17;;;;;;;60.83;55.45;;;;;;;23.37;100.00;100557.13;5010759;28;20049;-81
2021/07/30 01:31:44;;;;;;;57.50;51.67;;;;;;;23.49;100.00;100562.09;5012045;28;20398;-79
2021/07/30 01:34:11;;;;;;;60.08;54.13;;;;;;;23.07;100.00;100547.56;5011389;28;20043;-81
2021/07/30 01:36:38;;;;;;;69.43;63.08;;;;;;;22.97;100.00;100556.66;5006884;28;20078;-81
2021/07/30 01:39:04;;;;;;;65.43;58.95;;;;;;;23.10;100.00;100555.09;5006891;28;20061;-79
2021/07/30 01:41:32;;;;;;;59.28;53.15;;;;;;;23.02;100.00;100548.44;5010402;28;20050;-80
2021/07/30 01:43:59;;;;;;;58.42;52.53;;;;;;;22.97;100.00;100553.16;5010367;28;20046;-79
2021/07/30 01:46:26;;;;;;;54.90;49.28;;;;;;;22.89;100.00;100565.38;5007781;28;20050;-83
2021/07/30 01:48:53;;;;;;;57.47;51.20;;;;;;;22.66;100.00;100560.81;5009436;28;20054;-79
2021/07/30 01:51:19;;;;;;;69.65;62.22;;;;;;;22.11;100.00;100566.56;5013387;28;20474;-79
2021/07/30 01:53:46;;;;;;;71.15;58.58;;;;;;;22.48;100.00;100565.94;5007001;28;20479;-79
2021/07/30 01:56:13;;;;;;;67.30;60.78;;;;;;;22.50;100.00;100558.31;5012921;28;20052;-80
2021/07/30 01:58:41;;;;;;;65.32;58.65;;;;;;;22.51;100.00;100556.41;5010642;28;20049;-79
2021/07/30 02:01:08;;;;;;;69.15;62.95;;;;;;;22.62;100.00;100555.19;5123902;23;20486;-79
2021/07/30 02:03:34;;;;;;;60.47;54.47;;;;;;;22.35;100.00;100556.59;5033553;28;20053;-80
2021/07/30 02:06:07;;;;;;;63.95;57.40;;;;;;;22.48;100.00;100549.69;5032799;28;20115;-79
2021/07/30 02:08:34;;;;;;;65.38;58.97;;;;;;;22.62;100.00;100558.69;5032791;28;20132;-80
2021/07/30 02:11:01;;;;;;;62.22;56.72;;;;;;;22.70;100.00;100559.16;5033432;28;20064;-80
2021/07/30 02:16:13;;;;;;;67.28;61.05;;;;;;;22.43;100.00;100571.41;5034419;28;20045;-78
2021/07/30 02:18:39;;;;;;;75.03;67.43;;;;;;;22.32;100.00;100567.97;5035072;28;20053;-79
2021/07/30 02:21:06;;;;;;;70.68;63.65;;;;;;;22.46;100.00;100570.81;5032982;28;20436;-78
2021/07/30 02:23:33;;;;;;;77.85;70.63;;;;;;;22.45;100.00;100562.97;5037383;28;20056;-80
2021/07/30 02:25:59;;;;;;;76.32;68.85;;;;;;;22.26;100.00;100569.13;5033325;28;20111;-79
2021/07/30 02:28:26;;;;;;;73.22;66.65;;;;;;;22.22;100.00;100561.91;5031560;28;20115;-78
2021/07/30 02:30:53;;;;;;;79.40;72.30;;;;;;;22.04;100.00;100569.63;5033219;28;20084;-77
2021/07/30 02:33:21;;;;;;;77.30;69.88;;;;;;;22.18;100.00;100580.59;5033368;28;20127;-79
2021/07/30 02:35:48;;;;;;;73.60;66.68;;;;;;;22.31;100.00;100582.63;5034791;28;20053;-77
2021/07/30 02:38:15;;;;;;;72.82;65.57;;;;;;;22.13;100.00;100586.03;5034404;28;20049;-82
2021/07/30 02:40:41;;;;;;;80.15;72.57;;;;;;;22.25;100.00;100585.66;5033770;28;20049;-79
2021/07/30 02:43:08;;;;;;;70.13;64.00;;;;;;;22.32;100.00;100586.13;5033359;28;20456;-77
2021/07/30 02:45:35;;;;;;;69.63;62.88;;;;;;;22.28;100.00;100593.22;5026465;28;20060;-77
2021/07/30 02:48:01;;;;;;;68.85;62.25;;;;;;;22.27;100.00;100594.28;5031562;28;20520;-78
2021/07/30 02:50:30;;;;;;;72.60;66.00;;;;;;;21.94;100.00;100610.28;5032609;28;20061;-79
2021/07/30 02:52:56;;;;;;;71.35;64.47;;;;;;;22.28;100.00;100606.72;5032793;28;20053;-79
2021/07/30 02:55:23;;;;;;;69.32;62.38;;;;;;;22.44;100.00;100624.41;5036903;28;20092;-78
2021/07/30 02:57:50;;;;;;;75.88;68.97;;;;;;;22.44;100.00;100616.28;5030341;28;20119;-78
2021/07/30 03:00:17;;;;;;;72.63;65.47;;;;;;;22.33;100.00;100612.91;5038420;28;20046;-78
2021/07/30 03:02:44;;;;;;;77.40;70.13;;;;;;;22.22;100.00;100630.31;5041170;28;20084;-78
2021/07/30 03:05:13;;;;;;;78.07;70.10;;;;;;;22.11;100.00;100624.16;5039175;28;20464;-80
2021/07/30 03:07:41;;;;;;;69.38;62.95;;;;;;;22.14;100.00;100622.78;5037716;28;20071;-79
2021/07/30 03:10:08;;;;;;;72.80;66.03;;;;;;;22.01;100.00;100616.16;5037880;28;20060;-78
2021/07/30 03:12:36;;;;;;;67.22;61.08;;;;;;;21.96;100.00;100617.00;5036022;28;20076;-79
2021/07/30 03:15:03;;;;;;;69.45;62.63;;;;;;;21.86;100.00;100619.00;5034485;28;20133;-78
2021/07/30 03:17:29;;;;;;;77.50;70.43;;;;;;;21.59;100.00;100619.47;5037358;28;20049;-77
2021/07/30 03:19:56;;;;;;;84.10;76.50;;;;;;;21.35;100.00;100617.44;5039521;28;20470;-78
2021/07/30 03:22:23;;;;;;;79.90;72.80;;;;;;;21.53;100.00;100624.09;5039961;28;20049;-79
2021/07/30 03:24:51;;;;;;;71.40;64.30;;;;;;;21.86;100.00;100627.09;5036273;28;20111;-78
2021/07/30 03:27:18;;;;;;;71.97;65.40;;;;;;;21.87;100.00;100626.81;5037287;28;20445;-78
2021/07/30 03:29:44;;;;;;;72.93;66.13;;;;;;;21.89;100.00;100629.25;5038804;28;20038;-78
2021/07/30 03:32:11;;;;;;;84.85;77.05;;;;;;;21.65;100.00;100629.16;5040187;28;20539;-80
2021/07/30 03:34:38;;;;;;;78.03;70.63;;;;;;;21.95;100.00;100623.50;5033904;28;20049;-78
2021/07/30 03:37:05;;;;;;;90.93;82.43;;;;;;;21.70;100.00;100629.94;5034264;28;20045;-78
2021/07/30 03:39:32;;;;;;;83.25;75.35;;;;;;;21.85;100.00;100629.00;5041592;28;20045;-78
2021/07/30 03:42:00;;;;;;;78.40;70.90;;;;;;;22.01;100.00;100634.28;5033464;28;20049;-82
2021/07/30 03:44:27;;;;;;;80.35;73.05;;;;;;;22.27;100.00;100638.41;5039203;28;20046;-82
2021/07/30 03:46:54;;;;;;;81.80;74.13;;;;;;;22.28;100.00;100641.91;5035566;28;20053;-79
2021/07/30 03:49:20;;;;;;;83.55;75.18;;;;;;;22.03;100.00;100645.59;5037510;28;20053;-80
2021/07/30 03:51:47;;;;;;;95.50;86.90;;;;;;;22.53;100.00;100641.63;5037537;28;20057;-79
2021/07/30 03:54:14;;;;;;;82.05;74.03;;;;;;;22.93;100.00;100631.41;5037212;28;20049;-78
2021/07/30 03:56:41;;;;;;;71.85;64.22;;;;;;;22.70;100.00;100618.72;5032513;28;20068;-78
2021/07/30 03:59:10;;;;;;;76.57;69.60;;;;;;;22.65;100.00;100608.75;5037220;28;20053;-78
2021/07/30 04:01:36;;;;;;;71.55;65.10;;;;;;;22.77;100.00;100592.09;5032724;28;20058;-80
2021/07/30 04:04:03;;;;;;;72.63;65.72;;;;;;;23.05;100.00;100572.22;5036434;28;20056;-78
2021/07/30 04:06:31;;;;;;;76.18;69.22;;;;;;;23.09;100.00;100567.06;5034245;28;20111;-78
2021/07/30 04:08:57;;;;;;;88.88;80.85;;;;;;;23.25;100.00;100575.75;5037246;28;20061;-77
2021/07/30 04:11:24;;;;;;;84.15;76.50;;;;;;;23.32;100.00;100587.00;5033663;28;20057;-78
2021/07/30 04:13:51;;;;;;;79.43;71.53;;;;;;;23.53;100.00;100617.31;5034299;28;20428;-78
2021/07/30 04:16:19;;;;;;;73.70;66.80;;;;;;;23.94;100.00;100638.38;5036102;28;20042;-80
2021/07/30 04:18:46;;;;;;;70.82;63.53;;;;;;;23.88;100.00;100634.16;5030832;28;20045;-79
2021/07/30 04:21:12;;;;;;;75.90;68.55;;;;;;;23.52;100.00;100630.06;5037738;28;20119;-81
2021/07/30 04:23:39;;;;;;;74.80;67.72;;;;;;;23.73;100.00;100635.22;5034265;28;20115;-79
2021/07/30 04:26:08;;;;;;;87.55;79.38;;;;;;;23.74;100.00;100632.19;5032514;28;20060;-78
2021/07/30 04:28:35;;;;;;;83.72;76.57;;;;;;;24.00;100.00;100639.91;5034438;28;20103;-79
2021/07/30 04:31:05;;;;;;;75.32;69.30;;;;;;;24.09;100.00;100640.84;5033214;28;20069;-78
2021/07/30 04:33:34;;;;;;;70.72;64.22;;;;;;;24.12;100.00;100639.44;5032232;28;20045;-78
2021/07/30 04:36:01;;;;;;;55.33;49.78;;;;;;;24.49;100.00;100640.41;5031126;28;20119;-78
2021/07/30 04:38:27;;;;;;;54.85;49.45;;;;;;;24.53;100.00;100642.22;5035254;28;20492;-79
2021/07/30 04:40:54;;;;;;;48.15;43.72;;;;;;;24.57;100.00;100636.97;5034251;28;20107;-80
2021/07/30 04:43:21;;;;;;;50.60;45.90;;;;;;;24.62;100.00;100636.88;5033525;28;20053;-78
2021/07/30 04:45:48;;;;;;;50.90;46.10;;;;;;;24.98;100.00;100626.09;5032891;28;20084;-78
2021/07/30 04:48:14;;;;;;;49.58;45.08;;;;;;;24.62;100.00;100628.75;5032598;28;20045;-79
2021/07/30 04:50:42;;;;;;;54.55;49.50;;;;;;;24.63;100.00;100636.59;5033360;28;20477;-78
2021/07/30 04:53:09;;;;;;;48.97;44.85;;;;;;;24.94;100.00;100635.97;5032288;28;20134;-79
2021/07/30 04:55:36;;;;;;;47.80;43.55;;;;;;;25.22;100.00;100633.22;5034443;28;20052;-79
2021/07/30 04:58:03;;;;;;;45.70;41.53;;;;;;;24.86;100.00;100629.31;5032304;28;20049;-78
2021/07/30 05:00:30;;;;;;;45.28;40.65;;;;;;;24.53;100.00;100631.34;5023647;28;20430;-79
2021/07/30 05:02:58;;;;;;;44.90;40.40;;;;;;;25.04;100.00;100626.78;5034986;28;20111;-79
2021/07/30 05:05:25;;;;;;;45.63;40.88;;;;;;;24.88;100.00;100631.75;5031285;28;20556;-80
2021/07/30 05:07:53;;;;;;;51.22;46.20;;;;;;;24.77;100.00;100628.44;5028701;28;20107;-79
2021/07/30 05:10:20;;;;;;;48.90;44.03;;;;;;;24.96;100.00;100636.44;5032975;28;20111;-80
2021/07/30 05:12:47;;;;;;;44.03;40.30;;;;;;;25.20;100.00;100627.28;5032515;28;20048;-81
2021/07/30 05:15:15;;;;;;;42.15;37.65;;;;;;;25.79;100.00;100630.78;5024290;28;20136;-79
2021/07/30 05:17:41;;;;;;;43.28;38.97;;;;;;;26.13;100.00;100638.38;5031390;28;20053;-80
2021/07/30 05:20:09;;;;;;;40.67;36.85;;;;;;;25.81;100.00;100643.00;5032815;28;20111;-80
2021/07/30 05:22:36;;;;;;;41.83;38.35;;;;;;;26.63;100.00;100646.31;5032152;28;20049;-80
2021/07/30 05:25:04;;;;;;;42.08;38.15;;;;;;;25.59;100.00;100640.22;5033938;28;20111;-80
2021/07/30 05:27:31;;;;;;;42.83;39.03;;;;;;;25.52;100.00;100645.31;5030818;28;20461;-80
2021/07/30 05:29:59;;;;;;;40.35;36.72;;;;;;;25.95;100.00;100639.41;5032182;28;20057;-79
2021/07/30 05:32:25;;;;;;;45.63;41.47;;;;;;;25.55;100.00;100644.69;5032483;28;20041;-79
2021/07/30 05:34:52;;;;;;;40.83;36.80;;;;;;;25.78;100.00;100648.19;5032440;28;20048;-79
2021/07/30 05:37:19;;;;;;;40.42;36.80;;;;;;;25.93;100.00;100637.00;5031031;28;20053;-79
2021/07/30 05:39:46;;;;;;;41.65;38.13;;;;;;;26.53;100.00;100632.97;5029065;28;20042;-78
2021/07/30 05:42:14;;;;;;;39.05;35.28;;;;;;;27.18;100.00;100634.91;5026634;28;20060;-78
2021/07/30 05:44:41;;;;;;;39.50;36.10;;;;;;;26.75;100.00;100634.81;5030089;28;20068;-79
2021/07/30 05:47:09;;;;;;;40.80;37.10;;;;;;;26.10;100.00;100635.47;5028744;28;20050;-79
2021/07/30 05:49:35;;;;;;;41.33;37.10;;;;;;;25.89;100.00;100637.91;5030525;28;20460;-79
2021/07/30 05:52:03;;;;;;;40.22;36.53;;;;;;;26.01;100.00;100638.94;5032994;28;20137;-78
2021/07/30 05:54:32;;;;;;;42.53;38.50;;;;;;;26.13;100.00;100632.94;5032966;28;20049;-78
2021/07/30 05:56:59;;;;;;;45.28;40.78;;;;;;;26.40;100.00;100637.38;5032334;28;20050;-78
2021/07/30 05:59:28;;;;;;;43.50;39.10;;;;;;;26.64;100.00;100642.47;5032947;28;20115;-80
2021/07/30 06:01:55;;;;;;;40.75;36.67;;;;;;;26.46;100.00;100651.66;5029749;28;20518;-78
2021/07/30 06:04:22;;;;;;;40.40;36.80;;;;;;;26.62;100.00;100655.59;5031558;28;20100;-78
2021/07/30 06:06:49;;;;;;;46.53;42.63;;;;;;;27.26;100.00;100640.69;5031131;28;20453;-79
2021/07/30 06:09:16;;;;;;;42.83;39.15;;;;;;;27.17;100.00;100640.66;5031623;28;20064;-78
2021/07/30 06:11:42;;;;;;;41.17;37.80;;;;;;;27.10;100.00;100641.13;5031865;28;20444;-82
2021/07/30 06:14:09;;;;;;;41.88;38.38;;;;;;;27.21;100.00;100633.47;5031423;28;20544;-79
2021/07/30 06:16:37;;;;;;;46.40;42.67;;;;;;;27.25;100.00;100625.44;5032036;28;20438;-78
2021/07/30 06:19:10;;;;;;;45.03;41.05;;;;;;;27.91;100.00;100636.19;5031588;28;20050;-80
2021/07/30 06:21:37;;;;;;;45.28;41.42;;;;;;;27.45;100.00;100624.81;5031537;28;20057;-80
2021/07/30 06:24:05;;;;;;;44.22;39.97;;;;;;;27.52;100.00;100627.84;5032407;28;20076;-79
2021/07/30 06:26:32;;;;;;;40.20;36.22;;;;;;;27.66;100.00;100627.69;5031041;28;20049;-79
2021/07/30 06:29:00;;;;;;;41.05;37.22;;;;;;;27.71;100.00;100624.78;5028892;28;20049;-78
2021/07/30 06:31:26;;;;;;;44.95;41.45;;;;;;;27.67;100.00;100620.31;5034456;28;20452;-79
2021/07/30 06:33:55;;;;;;;40.40;36.58;;;;;;;28.07;100.00;100615.41;5036619;28;20052;-79
2021/07/30 06:36:22;;;;;;;40.75;37.50;;;;;;;28.26;100.00;100634.94;5035628;28;20056;-78
2021/07/30 06:38:49;;;;;;;36.88;33.63;;;;;;;28.32;100.00;100630.09;5034508;28;20049;-78
2021/07/30 06:41:17;;;;;;;41.38;38.17;;;;;;;28.37;100.00;100631.84;5035664;28;20061;-79
2021/07/30 06:43:44;;;;;;;38.42;35.38;;;;;;;28.51;100.00;100627.00;5034809;28;20104;-79
2021/07/30 06:46:11;;;;;;;36.17;32.90;;;;;;;28.48;100.00;100628.47;5034860;28;20079;-80
2021/07/30 06:48:38;;;;;;;34.85;31.85;;;;;;;28.63;100.00;100623.56;5034623;28;20041;-79
2021/07/30 06:51:06;;;;;;;34.20;31.30;;;;;;;28.84;100.00;100629.06;5035802;28;20053;-79
2021/07/30 06:53:34;;;;;;;36.20;32.60;;;;;;;28.75;100.00;100631.84;5034163;28;20061;-79
2021/07/30 06:56:08;;;;;;;34.58;30.98;;;;;;;28.50;100.00;100630.84;5015539;28;20054;-78
2021/07/30 06:58:35;;;;;;;37.63;34.40;;;;;;;28.76;100.00;100636.19;5034959;28;20056;-80
2021/07/30 07:01:03;;;;;;;32.22;29.02;;;;;;;28.73;100.00;100634.91;5034897;28;20544;-79
2021/07/30 07:03:30;;;;;;;32.67;29.73;;;;;;;28.65;100.00;100637.69;5035065;28;20127;-79
2021/07/30 07:05:57;;;;;;;31.77;28.90;;;;;;;28.72;100.00;100621.59;5032836;28;20088;-79
2021/07/30 07:08:25;;;;;;;33.35;30.05;;;;;;;29.00;100.00;100616.41;5024814;28;20546;-79
2021/07/30 07:10:52;;;;;;;36.78;32.90;;;;;;;29.29;100.00;100621.06;5031456;28;20135;-79
2021/07/30 07:13:20;;;;;;;31.92;28.63;;;;;;;29.34;100.00;100618.09;5033375;28;20053;-79
2021/07/30 07:15:47;;;;;;;32.25;28.92;;;;;;;29.24;100.00;100615.78;5033902;28;20049;-79
2021/07/30 07:18:14;;;;;;;33.05;30.08;;;;;;;29.46;100.00;100625.56;5034911;28;20057;-79
2021/07/30 07:20:41;;;;;;;37.28;33.60;;;;;;;29.57;100.00;100629.50;5035610;28;20142;-80
2021/07/30 07:23:08;;;;;;;35.50;32.72;;;;;;;29.29;100.00;100626.53;5034516;28;20056;-79
2021/07/30 07:25:38;;;;;;;34.67;31.42;;;;;;;29.68;100.00;100627.16;5034948;28;20058;-80
2021/07/30 07:28:05;;;;;;;32.33;28.83;;;;;;;29.48;100.00;100626.03;5033973;28;20053;-79
2021/07/30 07:30:31;;;;;;;31.88;29.27;;;;;;;29.69;100.00;100619.75;5034008;28;20492;-79
2021/07/30 07:32:58;;;;;;;31.75;28.55;;;;;;;29.92;100.00;100623.69;5034190;28;20110;-79
2021/07/30 07:35:25;;;;;;;32.75;29.75;;;;;;;30.25;100.00;100625.59;5034610;28;20049;-79
2021/07/30 07:37:52;;;;;;;33.72;30.92;;;;;;;30.31;100.00;100630.50;5033828;28;20155;-79
2021/07/30 07:40:18;;;;;;;31.65;28.55;;;;;;;30.53;100.00;100626.53;5033827;28;20527;-78
2021/07/30 07:42:46;;;;;;;32.22;29.33;;;;;;;30.26;100.00;100622.53;5025481;28;20045;-79
2021/07/30 07:45:13;;;;;;;32.22;29.23;;;;;;;30.24;100.00;100627.53;5034363;28;20060;-78
2021/07/30 07:47:40;;;;;;;30.45;27.65;;;;;;;30.24;100.00;100624.78;5032980;28;20046;-79
2021/07/30 07:50:07;;;;;;;32.00;29.05;;;;;;;30.69;100.00;100623.88;5033796;28;20045;-79
2021/07/30 07:52:35;;;;;;;34.45;30.77;;;;;;;30.76;100.00;100621.34;5033928;28;20444;-79
2021/07/30 07:55:03;;;;;;;34.40;31.27;;;;;;;30.58;100.00;100622.75;5033937;28;20437;-79
2021/07/30 07:57:30;;;;;;;32.88;30.05;;;;;;;29.94;100.00;100618.69;5033847;28;20049;-79
2021/07/30 07:59:58;;;;;;;32.45;29.77;;;;;;;30.93;100.00;100623.09;5033110;28;20057;-79
2021/07/30 08:02:25;;;;;;;33.67;30.73;;;;;;;30.58;100.00;100614.53;5033603;28;20068;-79
2021/07/30 08:04:52;;;;;;;33.20;30.33;;;;;;;30.29;100.00;100624.59;5033061;28;20140;-80
2021/07/30 08:07:18;;;;;;;34.60;32.03;;;;;;;30.93;100.00;100614.06;5033245;28;20050;-80
2021/07/30 08:09:46;;;;;;;35.10;32.35;;;;;;;31.00;100.00;100614.25;5033358;28;20046;-79
2021/07/30 08:12:13;;;;;;;37.58;34.22;;;;;;;31.13;100.00;100599.34;5033180;28;20651;-80
2021/07/30 08:14:40;;;;;;;36.42;33.35;;;;;;;31.23;100.00;100604.38;5034283;28;20045;-79
2021/07/30 08:17:08;;;;;;;35.25;32.45;;;;;;;30.56;100.00;100609.41;5031701;28;20367;-79
2021/07/30 08:19:35;;;;;;;34.03;31.20;;;;;;;31.39;100.00;100611.88;5033344;28;20053;-78
2021/07/30 08:22:02;;;;;;;35.80;32.95;;;;;;;31.36;100.00;100605.16;5034098;28;20115;-80
2021/07/30 08:24:31;;;;;;;34.92;31.67;;;;;;;31.05;100.00;100597.56;5034007;28;20478;-79
2021/07/30 08:26:58;;;;;;;35.38;32.30;;;;;;;31.23;100.00;100598.88;5033446;28;20041;-78
2021/07/30 08:29:25;;;;;;;36.08;32.80;;;;;;;30.94;100.00;100591.78;5033432;28;20045;-80
2021/07/30 08:31:52;;;;;;;37.65;34.40;;;;;;;30.39;100.00;100593.19;5032906;28;20138;-79
2021/07/30 08:34:21;;;;;;;35.63;32.60;;;;;;;30.72;100.00;100595.00;5033136;28;20057;-79
2021/07/30 08:36:48;;;;;;;32.72;29.73;;;;;;;30.94;100.00;100589.03;5033135;28;20060;-79
2021/07/30 08:39:14;;;;;;;32.45;29.45;;;;;;;31.02;100.00;100588.09;5033837;28;20505;-78
2021/07/30 08:41:41;;;;;;;33.55;30.00;;;;;;;31.55;100.00;100589.97;5033045;28;20060;-79
2021/07/30 08:44:09;;;;;;;33.00;29.60;;;;;;;31.49;100.00;100587.47;5032655;28;20046;-79
2021/07/30 08:46:36;;;;;;;32.05;29.20;;;;;;;31.87;100.00;100590.81;5033189;28;20073;-79
2021/07/30 08:49:05;;;;;;;32.40;29.70;;;;;;;31.80;100.00;100590.63;5031872;28;20141;-78
2021/07/30 08:51:35;;;;;;;31.15;28.65;;;;;;;31.82;100.00;100583.63;5032715;28;20145;-79
2021/07/30 08:54:02;;;;;;;32.88;29.92;;;;;;;32.43;100.00;100589.84;5032869;28;20049;-79
2021/07/30 08:56:29;;;;;;;33.00;30.33;;;;;;;31.35;100.00;100581.63;5032663;28;20107;-79
2021/07/30 08:58:56;;;;;;;32.08;29.38;;;;;;;31.73;100.00;100572.03;5032545;28;20096;-78
2021/07/30 09:01:22;;;;;;;31.65;28.83;;;;;;;32.19;100.00;100575.16;5033022;28;20053;-79
2021/07/30 09:03:49;;;;;;;32.38;29.77;;;;;;;32.06;100.00;100571.72;5032647;28;20466;-78
2021/07/30 09:06:21;;;;;;;34.97;31.20;;;;;;;32.21;100.00;100575.59;5033003;28;20053;-79
2021/07/30 09:09:06;;;;;;;35.17;32.20;;;;;;;32.00;100.00;100566.84;5032037;28;20474;-79
2021/07/30 09:11:36;;;;;;;35.15;32.03;;;;;;;31.77;100.00;100564.66;5032111;28;20057;-78
2021/07/30 09:14:04;;;;;;;34.65;31.65;;;;;;;32.02;100.00;100559.84;5033059;28;20115;-79
2021/07/30 09:16:31;;;;;;;32.55;29.48;;;;;;;31.75;100.00;100557.97;5031967;28;20045;-80
2021/07/30 09:19:06;;;;;;;30.10;27.33;;;;;;;32.31;100.00;100553.06;5032096;28;20052;-79
2021/07/30 09:21:35;;;;;;;33.08;30.17;;;;;;;32.04;100.00;100549.28;5032280;28;20049;-79
2021/07/30 09:24:05;;;;;;;32.25;29.15;;;;;;;31.49;100.00;100545.50;5032985;28;20061;-80
2021/07/30 09:26:37;;;;;;;31.00;28.48;;;;;;;31.00;100.00;100542.97;5031810;28;20371;-79
2021/07/30 09:29:06;;;;;;;34.25;31.20;;;;;;;32.53;100.00;100543.41;5032197;28;20053;-80
2021/07/30 09:31:49;;;;;;;32.47;29.50;;;;;;;32.31;100.00;100542.06;5032173;28;20383;-79
2021/07/30 09:34:21;;;;;;;33.28;30.27;;;;;;;31.85;100.00;100540.94;5027573;28;20056;-79
2021/07/30 09:36:51;;;;;;;35.72;32.72;;;;;;;32.70;100.00;100542.19;5032414;28;20049;-78
2021/07/30 09:39:20;;;;;;;36.50;32.80;;;;;;;33.24;100.00;100533.09;5032633;28;20049;-79
2021/07/30 09:42:00;;;;;;;33.35;30.08;;;;;;;31.96;100.00;100544.00;5032179;28;20096;-78
2021/07/30 09:44:28;;;;;;;33.95;30.98;;;;;;;33.24;100.00;100529.56;5032056;28;20072;-79
2021/07/30 09:47:09;;;;;;;31.27;28.40;;;;;;;33.73;100.00;100524.16;5031928;28;20136;-80
2021/07/30 09:49:43;;;;;;;32.58;29.35;;;;;;;34.34;100.00;100524.34;5031548;28;20524;-79
2021/07/30 09:52:11;;;;;;;31.55;29.13;;;;;;;34.16;100.00;100526.81;5032293;28;20064;-80
2021/07/30 09:54:44;;;;;;;32.35;29.42;;;;;;;33.71;100.00;100523.75;5033362;28;20142;-79
2021/07/30 09:57:12;;;;;;;33.60;31.00;;;;;;;32.41;100.00;100524.25;5032291;28;20041;-80
2021/07/30 09:59:42;;;;;;;33.75;30.73;;;;;;;33.90;100.00;100517.38;5031210;28;20136;-79
2021/07/30 10:02:13;;;;;;;32.17;29.67;;;;;;;32.74;100.00;100523.00;5032039;28;20467;-79
2021/07/30 10:04:42;;;;;;;30.02;27.48;;;;;;;31.81;100.00;100516.16;5035235;28;20100;-79
2021/07/30 10:07:12;;;;;;;31.30;28.33;;;;;;;33.12;100.00;100507.69;5035227;28;20520;-79
2021/07/30 10:09:43;;;;;;;30.90;28.02;;;;;;;31.74;100.00;100502.22;5035091;28;20045;-78
2021/07/30 10:12:10;;;;;;;30.30;27.20;;;;;;;33.49;100.00;100502.47;5031779;28;20053;-78
2021/07/30 10:14:37;;;;;;;31.10;28.17;;;;;;;33.40;100.00;100502.72;5035911;28;20425;-79
2021/07/30 10:17:06;;;;;;;30.23;27.30;;;;;;;33.40;100.00;100494.44;5035893;28;20470;-79
2021/07/30 10:19:36;;;;;;;28.90;26.02;;;;;;;33.87;100.00;100492.53;5035372;28;20478;-79
2021/07/30 10:22:06;;;;;;;30.48;27.48;;;;;;;32.28;100.00;100496.09;5035330;28;20057;-79
2021/07/30 10:24:38;;;;;;;30.27;27.67;;;;;;;33.84;100.00;100491.31;5036372;28;20088;-81
2021/07/30 10:27:09;;;;;;;32.70;29.52;;;;;;;33.64;100.00;100485.06;5034903;28;20108;-79
2021/07/30 10:30:06;;;;;;;32.50;29.27;;;;;;;32.61;100.00;100492.13;5036275;28;20473;-78
2021/07/30 10:32:44;;;;;;;30.98;28.25;;;;;;;33.23;100.00;100481.19;5026583;28;20045;-80
2021/07/30 10:35:11;;;;;;;31.02;28.40;;;;;;;32.99;100.00;100474.06;5035422;28;20128;-79
2021/07/30 10:37:41;;;;;;;30.85;28.25;;;;;;;33.30;100.00;100473.84;5035336;28;20061;-79
2021/07/30 10:40:20;;;;;;;29.67;26.92;;;;;;;34.76;100.00;100463.47;5034708;28;20049;-79
2021/07/30 10:43:06;;;;;;;29.60;26.92;;;;;;;32.75;100.00;100483.38;5034671;28;20053;-78
2021/07/30 10:45:33;;;;;;;29.83;27.45;;;;;;;34.59;100.00;100475.88;5035352;28;20116;-78
2021/07/30 10:48:34;;;;;;;30.77;27.83;;;;;;;35.03;92.20;100455.09;5034935;28;20053;-80
2021/07/30 10:51:04;;;;;;;29.55;26.45;;;;;;;33.60;100.00;100461.41;5035192;28;20117;-79
2021/07/30 10:53:44;;;;;;;30.52;27.92;;;;;;;33.61;100.00;100460.22;5034306;28;20397;-79
2021/07/30 10:56:43;;;;;;;29.92;27.30;;;;;;;33.66;100.00;100454.44;5016055;28;20103;-79
2021/07/30 10:59:13;;;;;;;30.23;27.73;;;;;;;34.38;100.00;100451.56;5033134;28;20471;-79
2021/07/30 11:02:00;;;;;;;30.90;28.58;;;;;;;33.11;100.00;100449.13;5034334;28;20064;-80
2021/07/30 11:04:28;;;;;;;31.27;28.85;;;;;;;34.38;100.00;100439.75;5034485;28;20069;-79
2021/07/30 11:06:56;;;;;;;30.17;27.48;;;;;;;35.35;91.80;100440.84;5035503;28;20063;-79
2021/07/30 11:09:39;;;;;;;30.88;27.65;;;;;;;35.44;93.95;100444.88;5034253;28;20657;-79